createdAt,value
2017-09-16T00:00:42.467Z,999.8
2017-09-16T00:01:42.482Z,999.81
2017-09-16T00:02:42.501Z,999.74
2017-09-16T00:03:42.521Z,999.76
2017-09-16T00:04:42.539Z,999.76
2017-09-16T00:05:42.557Z,999.75
2017-09-16T00:06:42.576Z,999.73
2017-09-16T00:07:42.707Z,999.72
2017-09-16T00:08:42.712Z,999.77
2017-09-16T00:09:42.711Z,999.72
2017-09-16T00:10:42.710Z,999.75
2017-09-16T00:11:42.710Z,999.73
2017-09-16T00:12:42.707Z,999.71
2017-09-16T00:13:42.709Z,999.71
2017-09-16T00:14:42.818Z,999.69
2017-09-16T00:15:42.847Z,999.68
2017-09-16T00:16:42.871Z,999.71
2017-09-16T00:17:42.872Z,999.72
2017-09-16T00:18:42.871Z,999.74
2017-09-16T00:19:42.868Z,999.73
2017-09-16T00:20:42.879Z,999.74
2017-09-16T00:21:42.877Z,999.73
2017-09-16T00:22:42.874Z,999.71
2017-09-16T00:23:42.987Z,999.71
2017-09-16T00:24:42.988Z,999.72
2017-09-16T00:25:43.012Z,999.71
2017-09-16T00:26:43.021Z,999.71
2017-09-16T00:27:43.020Z,999.73
2017-09-16T00:28:43.019Z,999.65
2017-09-16T00:29:43.019Z,999.72
2017-09-16T00:30:43.020Z,999.71
2017-09-16T00:31:43.037Z,999.68
2017-09-16T00:32:43.056Z,999.65
2017-09-16T00:33:43.075Z,999.68
2017-09-16T00:34:43.096Z,999.67
2017-09-16T00:35:43.110Z,999.67
2017-09-16T00:36:43.128Z,999.71
2017-09-16T00:37:43.146Z,999.67
2017-09-16T00:38:43.188Z,999.68
2017-09-16T00:39:43.184Z,999.67
2017-09-16T00:40:43.201Z,999.66
2017-09-16T00:41:43.220Z,999.64
2017-09-16T00:42:43.237Z,999.65
2017-09-16T00:43:43.256Z,999.57
2017-09-16T00:44:43.276Z,999.59
2017-09-16T00:45:43.294Z,999.6
2017-09-16T00:46:43.310Z,999.6
2017-09-16T00:47:43.351Z,999.61
2017-09-16T00:48:43.349Z,999.58
2017-09-16T00:49:43.365Z,999.58
2017-09-16T00:51:43.401Z,999.55
2017-09-16T00:52:43.420Z,999.54
2017-09-16T00:53:43.438Z,999.52
2017-09-16T00:54:43.455Z,999.52
2017-09-16T00:55:43.475Z,999.54
2017-09-16T00:56:43.492Z,999.49
2017-09-16T00:57:43.510Z,999.56
2017-09-16T00:58:43.530Z,999.59
2017-09-16T00:59:43.547Z,999.56
2017-09-16T01:00:43.567Z,999.56
2017-09-16T01:01:43.618Z,999.53
2017-09-16T01:02:43.658Z,999.53
2017-09-16T01:03:43.658Z,999.53
2017-09-16T01:04:43.656Z,999.53
2017-09-16T01:05:43.657Z,999.5
2017-09-16T01:06:43.795Z,999.54
2017-09-16T01:07:43.794Z,999.53
2017-09-16T01:08:43.820Z,999.52
2017-09-16T01:09:43.832Z,999.52
2017-09-16T01:10:43.830Z,999.52
2017-09-16T01:11:43.944Z,999.49
2017-09-16T01:12:43.836Z,999.5
2017-09-16T01:13:43.975Z,999.5
2017-09-16T01:14:43.835Z,999.47
2017-09-16T01:15:43.836Z,999.49
2017-09-16T01:16:43.944Z,999.5
2017-09-16T01:17:43.942Z,999.49
2017-09-16T01:18:43.977Z,999.53
2017-09-16T01:19:44.015Z,999.5
2017-09-16T01:20:43.976Z,999.47
2017-09-16T01:21:43.983Z,999.48
2017-09-16T01:22:43.973Z,999.46
2017-09-16T01:23:44.031Z,999.53
2017-09-16T01:24:44.000Z,999.5
2017-09-16T01:25:44.020Z,999.47
2017-09-16T01:26:44.037Z,999.49
2017-09-16T01:27:44.053Z,999.5
2017-09-16T01:28:44.073Z,999.5
2017-09-16T01:29:44.115Z,999.5
2017-09-16T01:30:44.107Z,999.49
2017-09-16T01:31:44.126Z,999.43
2017-09-16T01:32:44.145Z,999.42
2017-09-16T01:33:44.164Z,999.43
2017-09-16T01:34:44.178Z,999.38
2017-09-16T01:35:44.199Z,999.42
2017-09-16T01:36:44.215Z,999.45
2017-09-16T01:37:44.233Z,999.44
2017-09-16T01:38:44.252Z,999.43
2017-09-16T01:39:44.270Z,999.45
2017-09-16T01:40:44.289Z,999.43
2017-09-16T01:41:44.304Z,999.45
2017-09-16T01:42:44.324Z,999.46
2017-09-16T01:43:44.350Z,999.45
2017-09-16T01:44:44.358Z,999.46
2017-09-16T01:45:44.377Z,999.46
2017-09-16T01:46:44.395Z,999.46
2017-09-16T01:47:44.412Z,999.45
2017-09-16T01:48:44.429Z,999.46
2017-09-16T01:49:44.447Z,999.48
2017-09-16T01:50:44.465Z,999.46
2017-09-16T01:51:44.486Z,999.51
2017-09-16T01:52:44.503Z,999.5
2017-09-16T01:53:44.520Z,999.56
2017-09-16T01:54:44.540Z,999.53
2017-09-16T01:55:44.555Z,999.54
2017-09-16T01:56:44.573Z,999.52
2017-09-16T01:57:44.590Z,999.51
2017-09-16T01:58:44.609Z,999.48
2017-09-16T01:59:44.627Z,999.47
2017-09-16T02:00:44.644Z,999.48
2017-09-16T02:01:44.729Z,999.49
2017-09-16T02:02:44.681Z,999.48
2017-09-16T02:03:44.697Z,999.47
2017-09-16T02:04:44.715Z,999.44
2017-09-16T02:05:44.733Z,999.44
2017-09-16T02:06:44.749Z,999.43
2017-09-16T02:07:44.769Z,999.45
2017-09-16T02:08:44.786Z,999.45
2017-09-16T02:09:44.804Z,999.46
2017-09-16T02:10:44.822Z,999.5
2017-09-16T02:11:44.862Z,999.5
2017-09-16T02:12:44.857Z,999.49
2017-09-16T02:13:44.878Z,999.51
2017-09-16T02:14:44.893Z,999.49
2017-09-16T02:15:44.909Z,999.45
2017-09-16T02:16:44.928Z,999.5
2017-09-16T02:17:44.946Z,999.46
2017-09-16T02:18:44.964Z,999.44
2017-09-16T02:19:44.981Z,999.44
2017-09-16T02:20:45.001Z,999.44
2017-09-16T02:21:45.017Z,999.45
2017-09-16T02:22:45.035Z,999.45
2017-09-16T02:23:45.053Z,999.42
2017-09-16T02:24:45.070Z,999.46
2017-09-16T02:25:45.087Z,999.42
2017-09-16T02:26:45.106Z,999.43
2017-09-16T02:27:45.123Z,999.42
2017-09-16T02:28:45.231Z,999.44
2017-09-16T02:29:45.157Z,999.44
2017-09-16T02:30:45.176Z,999.43
2017-09-16T02:31:45.193Z,999.4
2017-09-16T02:32:45.210Z,999.39
2017-09-16T02:33:45.229Z,999.47
2017-09-16T02:34:45.247Z,999.41
2017-09-16T02:35:45.266Z,999.45
2017-09-16T02:36:45.281Z,999.43
2017-09-16T02:37:45.299Z,999.42
2017-09-16T02:38:45.318Z,999.43
2017-09-16T02:39:45.334Z,999.42
2017-09-16T02:40:45.353Z,999.41
2017-09-16T02:41:45.372Z,999.4
2017-09-16T02:42:45.389Z,999.43
2017-09-16T02:43:45.496Z,999.39
2017-09-16T02:44:45.426Z,999.4
2017-09-16T02:45:45.440Z,999.39
2017-09-16T02:46:45.458Z,999.38
2017-09-16T02:47:45.476Z,999.37
2017-09-16T02:48:45.493Z,999.39
2017-09-16T02:49:45.511Z,999.36
2017-09-16T02:50:45.528Z,999.36
2017-09-16T02:51:45.547Z,999.38
2017-09-16T02:52:45.564Z,999.39
2017-09-16T02:53:45.583Z,999.4
2017-09-16T02:54:45.604Z,999.39
2017-09-16T02:55:45.617Z,999.34
2017-09-16T02:56:45.634Z,999.38
2017-09-16T02:57:45.653Z,999.41
2017-09-16T02:58:45.669Z,999.39
2017-09-16T02:59:45.688Z,999.43
2017-09-16T03:00:45.707Z,999.42
2017-09-16T03:01:45.723Z,999.45
2017-09-16T03:02:45.740Z,999.45
2017-09-16T03:03:45.761Z,999.47
2017-09-16T03:04:45.776Z,999.48
2017-09-16T03:05:45.793Z,999.45
2017-09-16T03:06:45.888Z,999.49
2017-09-16T03:07:45.829Z,999.49
2017-09-16T03:08:45.846Z,999.52
2017-09-16T03:09:45.862Z,999.49
2017-09-16T03:10:45.881Z,999.51
2017-09-16T03:11:45.899Z,999.47
2017-09-16T03:12:45.916Z,999.49
2017-09-16T03:13:45.934Z,999.48
2017-09-16T03:14:45.951Z,999.48
2017-09-16T03:15:45.981Z,999.48
2017-09-16T03:16:45.985Z,999.49
2017-09-16T03:17:46.004Z,999.42
2017-09-16T03:18:46.021Z,999.46
2017-09-16T03:19:46.039Z,999.46
2017-09-16T03:20:46.055Z,999.46
2017-09-16T03:21:46.076Z,999.46
2017-09-16T03:22:46.092Z,999.48
2017-09-16T03:23:46.108Z,999.45
2017-09-16T03:24:46.126Z,999.43
2017-09-16T03:25:46.145Z,999.42
2017-09-16T03:26:46.164Z,999.4
2017-09-16T03:27:46.178Z,999.45
2017-09-16T03:28:46.198Z,999.43
2017-09-16T03:29:46.219Z,999.46
2017-09-16T03:30:46.232Z,999.45
2017-09-16T03:31:46.248Z,999.44
2017-09-16T03:32:46.307Z,999.4
2017-09-16T03:33:46.284Z,999.46
2017-09-16T03:34:46.300Z,999.42
2017-09-16T03:35:46.321Z,999.46
2017-09-16T03:36:46.336Z,999.46
2017-09-16T03:37:46.353Z,999.45
2017-09-16T03:38:46.370Z,999.43
2017-09-16T03:39:46.387Z,999.44
2017-09-16T03:40:46.406Z,999.41
2017-09-16T03:41:46.423Z,999.44
2017-09-16T03:42:46.439Z,999.38
2017-09-16T03:43:46.458Z,999.39
2017-09-16T03:44:46.474Z,999.35
2017-09-16T03:45:46.491Z,999.28
2017-09-16T03:46:46.509Z,999.32
2017-09-16T03:47:46.528Z,999.34
2017-09-16T03:48:46.545Z,999.3
2017-09-16T03:49:46.567Z,999.28
2017-09-16T03:50:46.578Z,999.29
2017-09-16T03:51:46.597Z,999.25
2017-09-16T03:52:46.613Z,999.27
2017-09-16T03:53:46.632Z,999.23
2017-09-16T03:54:46.651Z,999.23
2017-09-16T03:55:46.668Z,999.18
2017-09-16T03:56:46.684Z,999.17
2017-09-16T03:57:46.718Z,999.18
2017-09-16T03:58:46.719Z,999.17
2017-09-16T03:59:46.735Z,999.14
2017-09-16T04:00:46.752Z,999.17
2017-09-16T04:01:46.770Z,999.21
2017-09-16T04:02:46.788Z,999.18
2017-09-16T04:03:46.805Z,999.2
2017-09-16T04:04:46.825Z,999.26
2017-09-16T04:05:46.840Z,999.24
2017-09-16T04:06:46.858Z,999.2
2017-09-16T04:07:46.877Z,999.21
2017-09-16T04:08:46.892Z,999.18
2017-09-16T04:09:46.911Z,999.17
2017-09-16T04:10:46.929Z,999.16
2017-09-16T04:11:46.943Z,999.14
2017-09-16T04:12:46.961Z,999.19
2017-09-16T04:13:46.979Z,999.18
2017-09-16T04:14:46.998Z,999.18
2017-09-16T04:15:47.016Z,999.18
2017-09-16T04:16:47.030Z,999.22
2017-09-16T04:17:47.048Z,999.21
2017-09-16T04:18:47.064Z,999.22
2017-09-16T04:19:47.084Z,999.25
2017-09-16T04:20:47.101Z,999.25
2017-09-16T04:21:47.118Z,999.26
2017-09-16T04:22:47.134Z,999.31
2017-09-16T04:23:47.152Z,999.31
2017-09-16T04:24:47.172Z,999.32
2017-09-16T04:25:47.189Z,999.3
2017-09-16T04:26:47.204Z,999.31
2017-09-16T04:27:47.220Z,999.33
2017-09-16T04:28:47.238Z,999.35
2017-09-16T04:29:47.257Z,999.35
2017-09-16T04:30:47.274Z,999.35
2017-09-16T04:31:47.290Z,999.38
2017-09-16T04:32:47.308Z,999.37
2017-09-16T04:33:47.325Z,999.36
2017-09-16T04:34:47.344Z,999.35
2017-09-16T04:35:47.360Z,999.37
2017-09-16T04:36:47.378Z,999.43
2017-09-16T04:37:47.395Z,999.4
2017-09-16T04:38:47.412Z,999.4
2017-09-16T04:39:47.429Z,999.38
2017-09-16T04:40:47.445Z,999.44
2017-09-16T04:41:47.463Z,999.4
2017-09-16T04:42:47.481Z,999.4
2017-09-16T04:43:47.498Z,999.37
2017-09-16T04:44:47.515Z,999.36
2017-09-16T04:45:47.532Z,999.34
2017-09-16T04:46:47.550Z,999.35
2017-09-16T04:47:47.570Z,999.33
2017-09-16T04:48:47.591Z,999.31
2017-09-16T04:49:47.602Z,999.33
2017-09-16T04:50:47.621Z,999.31
2017-09-16T04:51:47.651Z,999.32
2017-09-16T04:52:47.652Z,999.33
2017-09-16T04:53:47.678Z,999.36
2017-09-16T04:54:47.688Z,999.34
2017-09-16T04:55:47.705Z,999.31
2017-09-16T04:56:47.722Z,999.31
2017-09-16T04:57:47.739Z,999.32
2017-09-16T04:58:47.755Z,999.32
2017-09-16T04:59:47.774Z,999.32
2017-09-16T05:00:47.790Z,999.34
2017-09-16T05:01:47.809Z,999.31
2017-09-16T05:02:47.823Z,999.32
2017-09-16T05:03:47.842Z,999.32
2017-09-16T05:04:47.861Z,999.35
2017-09-16T05:05:47.877Z,999.35
2017-09-16T05:06:47.894Z,999.36
2017-09-16T05:07:47.910Z,999.35
2017-09-16T05:08:47.928Z,999.39
2017-09-16T05:09:47.945Z,999.37
2017-09-16T05:10:47.964Z,999.38
2017-09-16T05:11:47.978Z,999.42
2017-09-16T05:12:47.997Z,999.37
2017-09-16T05:13:48.013Z,999.38
2017-09-16T05:14:48.030Z,999.38
2017-09-16T05:15:48.050Z,999.41
2017-09-16T05:16:48.064Z,999.42
2017-09-16T05:17:48.080Z,999.42
2017-09-16T05:18:48.100Z,999.41
2017-09-16T05:19:48.116Z,999.41
2017-09-16T05:20:48.133Z,999.42
2017-09-16T05:21:48.151Z,999.42
2017-09-16T05:22:48.168Z,999.44
2017-09-16T05:23:48.184Z,999.42
2017-09-16T05:24:48.201Z,999.44
2017-09-16T05:25:48.332Z,999.45
2017-09-16T05:26:48.332Z,999.47
2017-09-16T05:27:48.357Z,999.52
2017-09-16T05:28:48.366Z,999.53
2017-09-16T05:29:48.364Z,999.53
2017-09-16T05:30:48.363Z,999.54
2017-09-16T05:31:48.362Z,999.54
2017-09-16T05:32:48.362Z,999.55
2017-09-16T05:33:48.360Z,999.57
2017-09-16T05:34:48.373Z,999.53
2017-09-16T05:35:48.390Z,999.5
2017-09-16T05:36:48.406Z,999.52
2017-09-16T05:37:48.424Z,999.51
2017-09-16T05:38:48.440Z,999.47
2017-09-16T05:39:48.457Z,999.53
2017-09-16T05:40:48.474Z,999.54
2017-09-16T05:41:48.493Z,999.55
2017-09-16T05:42:48.510Z,999.53
2017-09-16T05:43:48.525Z,999.55
2017-09-16T05:44:48.546Z,999.56
2017-09-16T05:45:48.561Z,999.57
2017-09-16T05:46:48.577Z,999.57
2017-09-16T05:47:48.594Z,999.56
2017-09-16T05:48:48.618Z,999.55
2017-09-16T05:49:48.629Z,999.57
2017-09-16T05:50:48.646Z,999.55
2017-09-16T05:51:48.690Z,999.6
2017-09-16T05:52:48.681Z,999.58
2017-09-16T05:53:48.696Z,999.6
2017-09-16T05:54:48.729Z,999.58
2017-09-16T05:55:48.732Z,999.6
2017-09-16T05:56:48.749Z,999.61
2017-09-16T05:57:48.765Z,999.62
2017-09-16T05:58:48.783Z,999.65
2017-09-16T05:59:48.799Z,999.63
2017-09-16T06:00:48.817Z,999.66
2017-09-16T06:01:48.834Z,999.66
2017-09-16T06:02:48.856Z,999.7
2017-09-16T06:03:48.869Z,999.72
2017-09-16T06:04:48.883Z,999.74
2017-09-16T06:05:48.903Z,999.71
2017-09-16T06:06:48.920Z,999.75
2017-09-16T06:07:48.937Z,999.74
2017-09-16T06:08:48.953Z,999.74
2017-09-16T06:09:48.974Z,999.77
2017-09-16T06:10:48.988Z,999.79
2017-09-16T06:11:49.005Z,999.75
2017-09-16T06:12:49.022Z,999.76
2017-09-16T06:13:49.041Z,999.73
2017-09-16T06:14:49.057Z,999.72
2017-09-16T06:15:49.072Z,999.7
2017-09-16T06:16:49.093Z,999.68
2017-09-16T06:17:49.107Z,999.64
2017-09-16T06:18:49.124Z,999.69
2017-09-16T06:19:49.142Z,999.7
2017-09-16T06:20:49.158Z,999.69
2017-09-16T06:21:49.183Z,999.68
2017-09-16T06:22:49.193Z,999.73
2017-09-16T06:23:49.210Z,999.72
2017-09-16T06:24:49.237Z,999.68
2017-09-16T06:25:49.246Z,999.69
2017-09-16T06:26:49.262Z,999.69
2017-09-16T06:27:49.277Z,999.67
2017-09-16T06:28:49.297Z,999.65
2017-09-16T06:29:49.312Z,999.66
2017-09-16T06:30:49.329Z,999.59
2017-09-16T06:31:49.347Z,999.62
2017-09-16T06:32:49.364Z,999.6
2017-09-16T06:33:49.379Z,999.57
2017-09-16T06:34:49.398Z,999.62
2017-09-16T06:35:49.416Z,999.6
2017-09-16T06:36:49.433Z,999.63
2017-09-16T06:37:49.473Z,999.71
2017-09-16T06:38:49.466Z,999.71
2017-09-16T06:39:49.483Z,999.7
2017-09-16T06:40:49.505Z,999.77
2017-09-16T06:41:49.522Z,999.72
2017-09-16T06:42:49.535Z,999.78
2017-09-16T06:43:49.554Z,999.75
2017-09-16T06:44:49.568Z,999.77
2017-09-16T06:45:49.588Z,999.77
2017-09-16T06:46:49.606Z,999.79
2017-09-16T06:47:49.743Z,999.78
2017-09-16T06:48:49.637Z,999.8
2017-09-16T06:49:49.656Z,999.79
2017-09-16T06:50:49.673Z,999.81
2017-09-16T06:51:49.690Z,999.81
2017-09-16T06:52:49.708Z,999.83
2017-09-16T06:53:49.725Z,999.8
2017-09-16T06:54:49.746Z,999.86
2017-09-16T06:55:49.760Z,999.82
2017-09-16T06:56:49.777Z,999.87
2017-09-16T06:57:49.794Z,999.85
2017-09-16T06:58:49.812Z,999.86
2017-09-16T06:59:49.830Z,999.86
2017-09-16T07:00:49.848Z,999.87
2017-09-16T07:01:49.883Z,999.89
2017-09-16T07:02:49.882Z,999.89
2017-09-16T07:03:49.899Z,999.87
2017-09-16T07:04:49.916Z,999.88
2017-09-16T07:05:49.936Z,999.92
2017-09-16T07:06:49.952Z,999.9
2017-09-16T07:07:49.970Z,999.91
2017-09-16T07:08:49.987Z,999.91
2017-09-16T07:09:50.007Z,999.96
2017-09-16T07:10:50.020Z,999.95
2017-09-16T07:11:50.043Z,999.98
2017-09-16T07:12:50.056Z,999.94
2017-09-16T07:13:50.074Z,999.95
2017-09-16T07:14:50.211Z,999.96
2017-09-16T07:15:50.209Z,999.98
2017-09-16T07:16:50.130Z,999.95
2017-09-16T07:17:50.167Z,999.96
2017-09-16T07:18:50.163Z,999.98
2017-09-16T07:19:50.182Z,999.97
2017-09-16T07:20:50.199Z,999.95
2017-09-16T07:21:50.216Z,999.95
2017-09-16T07:22:50.233Z,999.96
2017-09-16T07:23:50.255Z,999.94
2017-09-16T07:24:50.269Z,1000
2017-09-16T07:25:50.286Z,999.94
2017-09-16T07:26:50.306Z,999.97
2017-09-16T07:27:50.322Z,999.97
2017-09-16T07:28:50.348Z,1000.01
2017-09-16T07:29:50.357Z,1000.02
2017-09-16T07:30:50.375Z,1000.07
2017-09-16T07:31:50.396Z,1000.05
2017-09-16T07:32:50.411Z,1000.05
2017-09-16T07:33:50.429Z,1000.04
2017-09-16T07:34:50.447Z,1000.04
2017-09-16T07:35:50.465Z,1000.05
2017-09-16T07:36:50.483Z,1000.03
2017-09-16T07:37:50.502Z,999.99
2017-09-16T07:38:50.520Z,999.95
2017-09-16T07:39:50.536Z,999.9
2017-09-16T07:40:50.557Z,999.91
2017-09-16T07:41:50.572Z,999.88
2017-09-16T07:42:50.592Z,999.89
2017-09-16T07:43:50.609Z,999.91
2017-09-16T07:44:50.629Z,999.94
2017-09-16T07:45:50.647Z,999.93
2017-09-16T07:46:50.663Z,999.97
2017-09-16T07:47:50.682Z,999.94
2017-09-16T07:48:50.703Z,999.91
2017-09-16T07:49:50.721Z,999.92
2017-09-16T07:50:50.737Z,999.93
2017-09-16T07:51:50.757Z,999.92
2017-09-16T07:52:50.779Z,999.96
2017-09-16T07:53:50.790Z,999.99
2017-09-16T07:54:50.816Z,1000.05
2017-09-16T07:55:50.830Z,1000.09
2017-09-16T07:56:50.846Z,1000.11
2017-09-16T07:57:50.865Z,1000.17
2017-09-16T07:58:50.883Z,1000.17
2017-09-16T07:59:50.900Z,1000.17
2017-09-16T08:00:50.920Z,1000.28
2017-09-16T08:01:50.937Z,1000.24
2017-09-16T08:02:50.957Z,1000.26
2017-09-16T08:03:50.975Z,1000.31
2017-09-16T08:04:50.993Z,1000.3
2017-09-16T08:05:51.010Z,1000.28
2017-09-16T08:06:51.030Z,1000.28
2017-09-16T08:07:51.048Z,1000.35
2017-09-16T08:08:51.067Z,1000.32
2017-09-16T08:09:51.089Z,1000.36
2017-09-16T08:10:51.104Z,1000.33
2017-09-16T08:11:51.122Z,1000.37
2017-09-16T08:12:51.140Z,1000.37
2017-09-16T08:13:51.158Z,1000.34
2017-09-16T08:14:51.185Z,1000.31
2017-09-16T08:15:51.317Z,1000.33
2017-09-16T08:16:51.317Z,1000.3
2017-09-16T08:17:51.326Z,1000.28
2017-09-16T08:18:51.251Z,1000.26
2017-09-16T08:19:51.363Z,1000.28
2017-09-16T08:20:51.383Z,1000.24
2017-09-16T08:21:51.394Z,1000.25
2017-09-16T08:22:51.388Z,1000.25
2017-09-16T08:23:51.386Z,1000.25
2017-09-16T08:24:51.366Z,1000.19
2017-09-16T08:25:51.383Z,1000.24
2017-09-16T08:26:51.402Z,1000.23
2017-09-16T08:27:51.423Z,1000.2
2017-09-16T08:28:51.439Z,1000.24
2017-09-16T08:29:51.459Z,1000.22
2017-09-16T08:30:51.478Z,1000.25
2017-09-16T08:31:51.495Z,1000.28
2017-09-16T08:32:51.515Z,1000.31
2017-09-16T08:33:51.534Z,1000.35
2017-09-16T08:34:51.552Z,1000.32
2017-09-16T08:35:51.572Z,1000.29
2017-09-16T08:36:51.591Z,1000.3
2017-09-16T08:37:51.612Z,1000.28
2017-09-16T08:38:51.628Z,1000.29
2017-09-16T08:39:51.648Z,1000.25
2017-09-16T08:40:51.668Z,1000.27
2017-09-16T08:41:51.685Z,1000.3
2017-09-16T08:42:51.705Z,1000.31
2017-09-16T08:43:51.724Z,1000.32
2017-09-16T08:44:51.742Z,1000.35
2017-09-16T08:45:51.762Z,1000.34
2017-09-16T08:46:51.783Z,1000.38
2017-09-16T08:47:51.806Z,1000.37
2017-09-16T08:48:51.819Z,1000.44
2017-09-16T08:49:51.843Z,1000.46
2017-09-16T08:50:51.858Z,1000.4
2017-09-16T08:51:51.878Z,1000.33
2017-09-16T08:52:51.899Z,1000.34
2017-09-16T08:53:51.920Z,1000.31
2017-09-16T08:54:51.936Z,1000.31
2017-09-16T08:55:51.958Z,1000.29
2017-09-16T08:56:51.976Z,1000.27
2017-09-16T08:57:51.994Z,1000.28
2017-09-16T08:58:52.015Z,1000.24
2017-09-16T08:59:52.034Z,1000.24
2017-09-16T09:00:52.053Z,1000.24
2017-09-16T09:01:52.079Z,1000.26
2017-09-16T09:02:52.092Z,1000.24
2017-09-16T09:03:52.111Z,1000.25
2017-09-16T09:04:52.132Z,1000.27
2017-09-16T09:05:52.153Z,1000.3
2017-09-16T09:06:52.195Z,1000.27
2017-09-16T09:07:52.190Z,1000.33
2017-09-16T09:08:52.210Z,1000.27
2017-09-16T09:09:52.231Z,1000.27
2017-09-16T09:10:52.250Z,1000.28
2017-09-16T09:11:52.268Z,1000.31
2017-09-16T09:12:52.291Z,1000.27
2017-09-16T09:13:52.312Z,1000.26
2017-09-16T09:14:52.348Z,1000.23
2017-09-16T09:15:52.349Z,1000.22
2017-09-16T09:16:52.368Z,1000.21
2017-09-16T09:17:52.388Z,1000.26
2017-09-16T09:18:52.408Z,1000.29
2017-09-16T09:19:52.429Z,1000.26
2017-09-16T09:20:52.450Z,1000.29
2017-09-16T09:21:52.468Z,1000.34
2017-09-16T09:22:52.489Z,1000.35
2017-09-16T09:23:52.509Z,1000.37
2017-09-16T09:24:52.529Z,1000.39
2017-09-16T09:25:52.551Z,1000.43
2017-09-16T09:26:52.569Z,1000.48
2017-09-16T09:27:52.589Z,1000.44
2017-09-16T09:28:52.609Z,1000.47
2017-09-16T09:29:52.629Z,1000.46
2017-09-16T09:30:52.650Z,1000.45
2017-09-16T09:31:52.670Z,1000.45
2017-09-16T09:32:52.689Z,1000.48
2017-09-16T09:33:52.712Z,1000.48
2017-09-16T09:34:52.730Z,1000.48
2017-09-16T09:35:52.751Z,1000.49
2017-09-16T09:36:52.769Z,1000.44
2017-09-16T09:37:52.790Z,1000.48
2017-09-16T09:38:52.814Z,1000.49
2017-09-16T09:39:52.831Z,1000.48
2017-09-16T09:40:52.852Z,1000.46
2017-09-16T09:41:52.873Z,1000.44
2017-09-16T09:42:52.893Z,1000.45
2017-09-16T09:43:52.917Z,1000.42
2017-09-16T09:44:52.950Z,1000.43
2017-09-16T09:45:52.956Z,1000.44
2017-09-16T09:46:52.976Z,1000.46
2017-09-16T09:47:52.997Z,1000.43
2017-09-16T09:48:53.016Z,1000.45
2017-09-16T09:49:53.038Z,1000.45
2017-09-16T09:50:53.058Z,1000.43
2017-09-16T09:51:53.077Z,1000.41
2017-09-16T09:52:53.100Z,1000.44
2017-09-16T09:53:53.119Z,1000.43
2017-09-16T09:54:53.139Z,1000.45
2017-09-16T09:55:53.161Z,1000.5
2017-09-16T09:56:54.190Z,1000.47
2017-09-16T09:57:53.204Z,1000.48
2017-09-16T09:58:53.224Z,1000.49
2017-09-16T09:59:53.244Z,1000.47
2017-09-16T10:00:53.266Z,1000.44
2017-09-16T10:01:53.285Z,1000.44
2017-09-16T10:02:53.307Z,1000.39
2017-09-16T10:03:53.329Z,1000.38
2017-09-16T10:04:53.349Z,1000.34
2017-09-16T10:05:53.370Z,1000.34
2017-09-16T10:06:53.390Z,1000.34
2017-09-16T10:07:53.411Z,1000.37
2017-09-16T10:08:53.435Z,1000.34
2017-09-16T10:09:53.453Z,1000.43
2017-09-16T10:10:53.475Z,1000.42
2017-09-16T10:11:53.497Z,1000.41
2017-09-16T10:12:53.518Z,1000.45
2017-09-16T10:13:53.538Z,1000.42
2017-09-16T10:14:53.561Z,1000.42
2017-09-16T10:15:53.595Z,1000.4
2017-09-16T10:16:53.670Z,1000.38
2017-09-16T10:17:53.623Z,1000.38
2017-09-16T10:18:53.644Z,1000.32
2017-09-16T10:19:53.667Z,1000.4
2017-09-16T10:20:53.686Z,1000.38
2017-09-16T10:21:53.710Z,1000.31
2017-09-16T10:22:53.729Z,1000.33
2017-09-16T10:23:53.750Z,1000.33
2017-09-16T10:24:53.776Z,1000.3
2017-09-16T10:25:53.799Z,1000.33
2017-09-16T10:26:53.815Z,1000.33
2017-09-16T10:27:53.839Z,1000.33
2017-09-16T10:28:53.857Z,1000.35
2017-09-16T10:29:53.879Z,1000.4
2017-09-16T10:30:53.901Z,1000.47
2017-09-16T10:31:53.921Z,1000.49
2017-09-16T10:32:53.942Z,1000.48
2017-09-16T10:33:53.966Z,1000.46
2017-09-16T10:34:53.990Z,1000.5
2017-09-16T10:35:54.007Z,1000.52
2017-09-16T10:36:54.029Z,1000.52
2017-09-16T10:37:54.051Z,1000.49
2017-09-16T10:38:54.075Z,1000.51
2017-09-16T10:39:54.238Z,1000.51
2017-09-16T10:40:54.209Z,1000.45
2017-09-16T10:41:54.209Z,1000.48
2017-09-16T10:42:54.235Z,1000.46
2017-09-16T10:43:54.276Z,1000.47
2017-09-16T10:44:54.307Z,1000.47
2017-09-16T10:45:54.239Z,1000.48
2017-09-16T10:46:54.245Z,1000.46
2017-09-16T10:47:54.269Z,1000.47
2017-09-16T10:48:54.290Z,1000.49
2017-09-16T10:49:54.312Z,1000.51
2017-09-16T10:50:54.334Z,1000.5
2017-09-16T10:51:54.414Z,1000.52
2017-09-16T10:52:54.380Z,1000.45
2017-09-16T10:53:54.402Z,1000.46
2017-09-16T10:54:54.423Z,1000.41
2017-09-16T10:55:54.445Z,1000.46
2017-09-16T10:56:54.494Z,1000.45
2017-09-16T10:57:54.491Z,1000.47
2017-09-16T10:58:54.510Z,1000.42
2017-09-16T10:59:54.534Z,1000.42
2017-09-16T11:00:54.556Z,1000.43
2017-09-16T11:01:54.578Z,1000.38
2017-09-16T11:02:54.599Z,1000.41
2017-09-16T11:03:54.621Z,1000.45
2017-09-16T11:04:54.643Z,1000.44
2017-09-16T11:05:54.667Z,1000.44
2017-09-16T11:06:54.689Z,1000.44
2017-09-16T11:07:54.711Z,1000.38
2017-09-16T11:08:54.732Z,1000.41
2017-09-16T11:09:54.755Z,1000.41
2017-09-16T11:10:54.778Z,1000.41
2017-09-16T11:11:54.799Z,1000.43
2017-09-16T11:12:54.822Z,1000.47
2017-09-16T11:13:54.846Z,1000.43
2017-09-16T11:14:54.867Z,1000.42
2017-09-16T11:15:54.890Z,1000.39
2017-09-16T11:16:54.913Z,1000.37
2017-09-16T11:17:54.935Z,1000.39
2017-09-16T11:18:54.957Z,1000.4
2017-09-16T11:19:54.980Z,1000.38
2017-09-16T11:20:55.002Z,1000.37
2017-09-16T11:21:55.024Z,1000.35
2017-09-16T11:22:55.048Z,1000.29
2017-09-16T11:23:55.069Z,1000.33
2017-09-16T11:24:55.093Z,1000.28
2017-09-16T11:25:55.114Z,1000.3
2017-09-16T11:26:55.139Z,1000.31
2017-09-16T11:27:55.160Z,1000.35
2017-09-16T11:28:55.186Z,1000.35
2017-09-16T11:29:55.205Z,1000.33
2017-09-16T11:30:55.228Z,1000.34
2017-09-16T11:31:55.254Z,1000.35
2017-09-16T11:32:55.279Z,1000.32
2017-09-16T11:33:55.296Z,1000.3
2017-09-16T11:34:55.370Z,1000.31
2017-09-16T11:35:55.344Z,1000.35
2017-09-16T11:36:55.366Z,1000.35
2017-09-16T11:37:55.389Z,1000.34
2017-09-16T11:38:55.413Z,1000.37
2017-09-16T11:39:55.434Z,1000.38
2017-09-16T11:40:55.457Z,1000.39
2017-09-16T11:41:55.482Z,1000.36
2017-09-16T11:42:55.505Z,1000.32
2017-09-16T11:43:55.528Z,1000.28
2017-09-16T11:44:55.557Z,1000.24
2017-09-16T11:45:55.573Z,1000.25
2017-09-16T11:46:55.601Z,1000.27
2017-09-16T11:47:55.619Z,1000.26
2017-09-16T11:48:55.643Z,1000.23
2017-09-16T11:49:55.667Z,1000.23
2017-09-16T11:50:55.689Z,1000.2
2017-09-16T11:51:55.723Z,1000.14
2017-09-16T11:52:55.736Z,1000.15
2017-09-16T11:53:55.759Z,1000.19
2017-09-16T11:54:55.783Z,1000.15
2017-09-16T11:55:55.808Z,1000.22
2017-09-16T11:56:55.829Z,1000.14
2017-09-16T11:57:55.852Z,1000.13
2017-09-16T11:58:55.875Z,1000.15
2017-09-16T11:59:55.898Z,1000.12
2017-09-16T12:00:55.922Z,1000.09
2017-09-16T12:01:55.954Z,1000.11
2017-09-16T12:02:55.974Z,1000.08
2017-09-16T12:03:55.992Z,1000.13
2017-09-16T12:04:56.016Z,1000.08
2017-09-16T12:05:56.040Z,1000.07
2017-09-16T12:06:56.062Z,1000.13
2017-09-16T12:07:56.086Z,1000.16
2017-09-16T12:08:56.110Z,1000.11
2017-09-16T12:09:56.133Z,1000.07
2017-09-16T12:10:56.156Z,1000.1
2017-09-16T12:11:56.180Z,1000.1
2017-09-16T12:12:56.208Z,1000.09
2017-09-16T12:13:56.227Z,1000.05
2017-09-16T12:14:56.251Z,1000.05
2017-09-16T12:15:56.281Z,1000.08
2017-09-16T12:16:56.300Z,1000.09
2017-09-16T12:17:56.322Z,1000.07
2017-09-16T12:18:56.345Z,1000.06
2017-09-16T12:19:56.370Z,1000.04
2017-09-16T12:20:56.398Z,1000.05
2017-09-16T12:21:56.416Z,1000.04
2017-09-16T12:22:56.440Z,999.99